• Join FlightAware (Why Join?)
  • Login
  • US Flag 
10:18PM EDT


 

Airport Tracker/Info


-or-


 

Live Flight TrackerFlight Track Log ✈ JBU226 ✈ 27-Oct-2013 ✈ KTPA - KJFK

Flight Track Log - Related Links

Times and Time Zones

All times are in EDT time to prevent confusion due to time zone crossing. See the JBU226 flight status page for this flight to view local times or setup timezone preferences in your user account.

Time Position Orientation Groundspeed Altitude Reporting Facility
EDT Latitude Longitude Course Direction KTS MPH feet Rate Location/Type
06:01AM 27.9833 -82.5333 320° Northwest 150 173 700  Level Tampa TRACON
06:01AM 28.0000 -82.5333 360° North 146 168 1,200 1,860 Climbing Tampa TRACON
06:03AM 28.0828 -82.5328 360° North 186 214 4,200 2,340 Climbing Jacksonville Center
06:04AM 28.3013 -82.3419 North  Level Estimated
06:04AM 28.1578 -82.5347 359° North 225 259 7,600  Level Jacksonville Center
06:05AM 28.4098 -82.2778 354° North  Level Estimated
06:05AM 28.2350 -82.5414 356° North 259 298 10,500  Level Jacksonville Center
06:06AM 28.5184 -82.2136 354° North  Level Estimated
06:06AM 28.3311 -82.5531 354° North 301 346 12,200  Level Jacksonville Center
06:07AM 28.6116 -82.3038 320° Northwest  Level FlightAware Approximate
06:07AM 28.4311 -82.5644 354° North 341 392 14,700  Level Jacksonville Center
06:08AM 28.5378 -82.5736 356° North 367 422 17,200 2,400 Climbing Jacksonville Center
06:09AM 28.6483 -82.5875 354° North 388 447 19,500 2,280 Climbing Jacksonville Center
06:10AM 28.7736 -82.6014 354° North 403 464 21,800 2,040 Climbing Jacksonville Center
06:11AM 28.8842 -82.6200 352° North 409 471 23,600 1,860 Climbing Jacksonville Center
06:12AM 29.0033 -82.6339 354° North 409 471 25,600 1,680 Climbing Jacksonville Center
06:13AM 29.1203 -82.6500 353° North 415 478 27,000 1,380 Climbing Jacksonville Center
06:14AM 29.2392 -82.6664 353° North 420 483 28,400 1,260 Climbing Jacksonville Center
06:15AM 29.3644 -82.6853 353° North 432 497 29,600 1,440 Climbing Jacksonville Center
06:16AM 29.4897 -82.6922 357° North 442 509 31,300 1,320 Climbing Jacksonville Center
06:17AM 29.6192 -82.6942 359° North 455 524 32,300 1,200 Climbing Jacksonville Center
06:18AM 29.7486 -82.6942 360° North 460 529 33,700 1,380 Climbing Jacksonville Center
06:19AM 29.8739 -82.6914 North 460 529 35,100 1,140 Climbing Jacksonville Center
06:20AM 30.0011 -82.6936 359° North 460 529 36,000 900 Climbing Jacksonville Center
06:21AM 30.1264 -82.6861 North 460 529 37,000 480 Climbing Jacksonville Center
06:22AM 30.2517 -82.6858 360° North 455 524 37,000  Level Jacksonville Center
06:23AM 30.3769 -82.6856 360° North 450 518 37,000  Level Jacksonville Center
06:24AM 30.5003 -82.6731 North 450 518 37,000 -60 Level Jacksonville Center
06:25AM 30.6275 -82.6294 16° North 455 524 36,900 -60 Descending Jacksonville Center
06:26AM 30.7506 -82.5686 23° Northeast 462 532 36,900  Level Jacksonville Center
06:27AM 30.8736 -82.5078 23° Northeast 467 537 37,000  Climbing Jacksonville Center
06:28AM 30.9714 -82.4419 30° Northeast 489 563 37,000  Level Jacksonville Center
06:29AM 31.0836 -82.3225 42° Northeast 489 563 37,000  Level Jacksonville Center
06:30AM 31.1875 -82.2078 43° Northeast 501 577 37,000 -60 Level Jacksonville Center
06:31AM 31.2914 -82.0975 42° Northeast 501 577 36,900  Descending Jacksonville Center
06:32AM 31.3928 -81.9847 44° Northeast 501 577 37,000  Climbing Jacksonville Center
06:33AM 31.5047 -81.8594 44° Northeast 501 577 37,000  Level Jacksonville Center
06:34AM 31.5978 -81.7558 43° Northeast 501 577 37,000  Level Jacksonville Center
06:35AM 31.7114 -81.6325 43° Northeast 504 580 37,000  Level Jacksonville Center
06:36AM 31.8147 -81.5211 42° Northeast 503 579 37,000  Level Jacksonville Center
06:37AM 31.9094 -81.4144 44° Northeast 508 585 37,000  Level Jacksonville Center
06:38AM 32.0144 -81.2975 43° Northeast 513 590 37,000  Level Jacksonville Center
06:39AM 32.1194 -81.1803 43° Northeast 513 590 37,000  Level Jacksonville Center
06:40AM 32.2367 -81.0553 42° Northeast 520 598 37,100  Climbing Jacksonville Center
06:41AM 32.3414 -80.9378 43° Northeast 511 588 37,000 -60 Descending Jacksonville Center
06:42AM 32.4317 -80.8300 45° Northeast 511 588 37,000  Level Jacksonville Center
06:43AM 32.5342 -80.7167 43° Northeast 511 588 37,000  Level Jacksonville Center
06:44AM 32.6342 -80.6008 44° Northeast 506 582 37,000  Level Jacksonville Center
06:45AM 32.7344 -80.4872 44° Northeast 501 577 37,100 780 Climbing Jacksonville Center
06:46AM 32.8344 -80.3733 44° Northeast 501 577 38,600 900 Climbing Jacksonville Center
06:47AM 32.9447 -80.2489 43° Northeast 496 571 39,000 180 Climbing Jacksonville Center
06:48AM 33.0364 -80.1422 44° Northeast 485 558 39,000  Level Jacksonville Center
06:49AM 33.1381 -80.0250 44° Northeast 492 566 39,000  Level Jacksonville Center
06:50AM 33.2378 -79.9100 44° Northeast 497 572 39,000  Level Jacksonville Center
06:51AM 33.3353 -79.7972 44° Northeast 491 565 39,000  Level Jacksonville Center
06:52AM 33.4344 -79.6819 44° Northeast 491 565 39,000  Level Jacksonville Center
06:53AM 33.5339 -79.5661 44° Northeast 491 565 39,000  Level Jacksonville Center
06:54AM 33.6328 -79.4478 45° Northeast 491 565 39,000  Level Jacksonville Center
06:55AM 33.7278 -79.3367 44° Northeast 491 565 39,000  Level Jacksonville Center
06:57AM 33.8658 -79.1731 45° Northeast 481 554 39,000  Level Washington Center
06:58AM 33.9631 -79.0569 45° Northeast 486 559 39,000 -60 Level Washington Center
06:59AM 34.0625 -78.9408 44° Northeast 486 559 38,900  Descending Washington Center
07:00AM 34.1594 -78.8269 44° Northeast 481 554 39,000  Climbing Washington Center
07:01AM 34.2542 -78.7125 45° Northeast 476 548 39,000  Level Washington Center
07:02AM 34.3553 -78.5981 43° Northeast 476 548 39,000  Level Washington Center
07:03AM 34.4600 -78.4961 39° Northeast 482 555 39,000  Level Washington Center
07:04AM 34.5647 -78.3914 39° Northeast 482 555 39,000  Level Washington Center
07:05AM 34.6694 -78.2864 39° Northeast 482 555 39,000  Level Washington Center
07:06AM 34.7717 -78.1836 40° Northeast 487 560 39,000  Level Washington Center
07:07AM 34.8828 -78.0631 42° Northeast 481 554 39,000  Level Washington Center
07:08AM 34.9850 -77.9572 40° Northeast 481 554 39,000  Level Washington Center
07:09AM 35.0872 -77.8536 40° Northeast 481 554 39,000  Level Washington Center
07:10AM 35.1894 -77.7472 40° Northeast 481 554 39,000  Level Washington Center
07:11AM 35.2936 -77.6406 40° Northeast 481 554 39,000  Level Washington Center
07:12AM 35.4186 -77.5139 40° Northeast 486 559 39,000  Level Washington Center
07:13AM 35.5267 -77.4194 35° Northeast 486 559 39,000  Level Washington Center
07:14AM 35.6364 -77.3247 35° Northeast 481 554 39,000  Level Washington Center
07:15AM 35.7483 -77.2275 35° Northeast 486 559 39,000  Level Washington Center
07:16AM 35.8603 -77.1322 35° Northeast 486 559 39,000  Level Washington Center
07:17AM 35.9658 -77.0369 36° Northeast 480 552 39,000  Level Washington Center
07:18AM 36.0836 -76.9594 28° Northeast 480 552 39,000  Level Washington Center
07:19AM 36.1992 -76.8764 30° Northeast 475 547 39,000  Level Washington Center
07:20AM 36.3169 -76.7983 28° Northeast 475 547 39,000 -60 Level Washington Center
07:21AM 36.4344 -76.7175 29° Northeast 475 547 38,900  Descending Washington Center
07:22AM 36.5478 -76.6417 28° Northeast 470 541 39,000  Climbing Washington Center
07:23AM 36.6633 -76.5603 29° Northeast 470 541 39,000  Level Washington Center
07:24AM 36.7786 -76.4761 30° Northeast 470 541 39,000  Level Washington Center
07:25AM 36.8939 -76.3944 30° Northeast 470 541 39,000  Level Washington Center
07:26AM 37.0114 -76.3125 29° Northeast 470 541 39,000  Level Washington Center
07:27AM 37.1286 -76.2300 29° Northeast 470 541 39,000  Level Washington Center
07:28AM 37.2458 -76.1528 28° Northeast 470 541 39,000  Level Washington Center
07:29AM 37.3631 -76.0700 29° Northeast 470 541 39,000  Level Washington Center
07:30AM 37.4781 -75.9897 29° Northeast 475 547 39,000  Level Washington Center
07:31AM 37.5972 -75.9064 29° Northeast 475 547 39,000  Level Washington Center
07:32AM 37.7142 -75.8228 29° Northeast 480 552 39,000 -60 Level Washington Center
07:33AM 37.8311 -75.7364 30° Northeast 480 552 38,900 -60 Descending Washington Center
07:34AM 37.9478 -75.6497 30° Northeast 480 552 38,900  Level Washington Center
07:35AM 38.0500 -75.5706 31° Northeast 480 552 39,000  Climbing Washington Center
07:36AM 38.1836 -75.4833 27° Northeast 480 552 39,000  Level Washington Center
07:37AM 38.2961 -75.3958 31° Northeast 480 552 39,000 -600 Level Washington Center
07:38AM 38.3981 -75.3214 30° Northeast 473 544 37,900 -1,020 Descending Washington Center
07:39AM 38.5083 -75.2361 31° Northeast 463 533 37,000 -480 Descending Washington Center
07:40AM 38.6206 -75.1481 32° Northeast 463 533 37,000  Level Washington Center
07:41AM 38.7264 -75.0489 36° Northeast 468 539 37,000 -600 Level Washington Center
07:42AM 38.8322 -74.9547 35° Northeast 468 539 35,900 -1,860 Descending Washington Center
07:43AM 38.9442 -74.8550 35° Northeast 468 539 33,300 -2,640 Descending Washington Center
07:44AM 39.0500 -74.7603 35° Northeast 473 544 30,700 -2,460 Descending Washington Center
07:45AM 39.1536 -74.6628 36° Northeast 473 544 28,400 -2,280 Descending Washington Center
07:46AM 39.2528 -74.5731 35° Northeast 454 522 26,200 -2,220 Descending Washington Center
07:47AM 39.3478 -74.4858 35° Northeast 435 501 24,000 -2,580 Descending Washington Center
07:48AM 39.4553 -74.3900 35° Northeast 430 495 21,100 -2,580 Descending Washington Center
07:49AM 39.5544 -74.2981 36° Northeast 412 474 18,700 -2,040 Descending New York Center
07:50AM 39.6492 -74.1978 39° Northeast 406 467 16,900 -1,680 Descending New York Center
07:51AM 39.7308 -74.1097 40° Northeast 395 455 15,400 -1,440 Descending New York Center
07:52AM 39.8125 -74.0219 40° Northeast 383 441 14,100 -1,260 Descending New York Center
07:53AM 39.8872 -73.9578 33° Northeast 363 418 12,900 -1,260 Descending New York Center
07:54AM 39.9744 -73.8939 29° Northeast 355 409 11,600 -1,080 Descending New York Center
07:56AM 40.1153 -73.7672 35° Northeast 304 350 9,700 -1,140 Descending New York Center
07:57AM 40.1919 -73.7028 33° Northeast 293 337 8,200 -1,500 Descending New York Center
07:58AM 40.2536 -73.6539 31° Northeast 293 337 6,800 -1,200 Descending New York Center
07:59AM 40.3239 -73.5942 33° Northeast 274 315 5,800 -960 Descending New York Center
08:00AM 40.3811 -73.5475 32° Northeast 274 315 4,900 -900 Descending New York Center
08:01AM 40.4511 -73.4903 32° Northeast 268 308 4,000 -480 Descending New York Center
08:02AM 40.5119 -73.4764 10° North 244 281 4,000  Level New York Center
08:03AM 40.5783 -73.4897 351° North 236 272 4,000  Level New York Center
08:04AM 40.6447 -73.5033 351° North 228 262 4,000 -120 Level New York Center
08:05AM 40.6981 -73.5331 337° Northwest 214 246 3,800 -1,020 Descending New York Center
08:06AM 40.7361 -73.6056 305° West 214 246 2,000 -900 Descending New York Center
08:07AM 40.7167 -73.6667 247° West 184 212 2,000 -300 Level New York TRACON
08:08AM 40.6833 -73.7167 229° Southwest 141 162 1,400 -780 Descending New York TRACON
08:09AM 40.6667 -73.7333 217° Southwest 124 143 500 -900 Descending New York TRACON
08:11AM 40.6398 -73.7789 232° Southwest  Level Estimated
08:18AM 40.6398 -73.7789 72° East  Level Estimated
08:19AM 40.6398 -73.7789 72° East  Level Estimated